createdAt,value
2022-09-05T00:00:13.011Z,24.22
2022-09-05T00:03:07.756Z,24.27
2022-09-05T00:06:01.962Z,24.40
2022-09-05T00:08:48.754Z,24.33
2022-09-05T00:11:41.447Z,24.40
2022-09-05T00:14:56.164Z,24.33
2022-09-05T00:19:16.166Z,24.43
2022-09-05T00:24:27.840Z,24.37
2022-09-05T00:24:30.375Z,24.37
2022-09-05T00:26:35.383Z,24.40
2022-09-05T00:29:44.945Z,24.62
2022-09-05T00:32:33.424Z,24.47
2022-09-05T00:35:00.986Z,24.53
2022-09-05T00:37:41.548Z,24.68
2022-09-05T00:40:39.971Z,24.45
2022-09-05T00:43:14.794Z,24.34
2022-09-05T00:45:50.596Z,24.35
2022-09-05T00:48:21.231Z,24.37
2022-09-05T00:51:16.135Z,24.27
2022-09-05T00:53:56.979Z,24.50
2022-09-05T00:57:01.763Z,24.51
2022-09-05T00:59:50.852Z,24.44
2022-09-05T01:02:39.846Z,24.30
2022-09-05T01:05:31.324Z,24.21
2022-09-05T01:08:04.728Z,24.03
2022-09-05T01:10:40.692Z,23.92
2022-09-05T01:13:29.657Z,23.76
2022-09-05T01:16:23.394Z,23.84
2022-09-05T01:19:30.918Z,23.75
2022-09-05T01:22:27.836Z,23.72
2022-09-05T01:25:13.989Z,23.66
2022-09-05T01:29:13.646Z,23.64
2022-09-05T01:31:24.049Z,23.56
2022-09-05T01:34:18.506Z,23.62
2022-09-05T01:37:24.811Z,23.57
2022-09-05T01:40:22.276Z,23.56
2022-09-05T01:43:25.714Z,23.64
2022-09-05T01:46:20.973Z,23.67
2022-09-05T01:49:11.300Z,23.56
2022-09-05T01:52:06.061Z,23.57
2022-09-05T01:54:43.015Z,23.57
2022-09-05T01:57:35.768Z,23.58
2022-09-05T02:00:21.988Z,23.34
2022-09-05T02:03:01.784Z,23.27
2022-09-05T02:05:51.903Z,23.43
2022-09-05T02:09:01.578Z,23.58
2022-09-05T02:11:41.719Z,23.49
2022-09-05T02:14:33.986Z,23.41
2022-09-05T02:17:49.715Z,23.57
2022-09-05T02:20:23.870Z,23.61
2022-09-05T02:23:36.255Z,23.55
2022-09-05T02:26:26.256Z,23.37
2022-09-05T02:29:07.133Z,23.41
2022-09-05T02:31:49.662Z,23.30
2022-09-05T02:34:42.518Z,23.19
2022-09-05T02:38:00.467Z,23.28
2022-09-05T02:45:09.793Z,23.48
2022-09-05T02:45:13.413Z,23.53
2022-09-05T02:46:55.607Z,23.44
2022-09-05T02:50:36.414Z,23.46
2022-09-05T02:57:29.755Z,23.54
2022-09-05T02:57:33.108Z,23.38
2022-09-05T02:59:10.031Z,23.27
2022-09-05T03:02:26.321Z,23.16
2022-09-05T03:05:14.619Z,23.22
2022-09-05T03:08:23.381Z,23.32
2022-09-05T03:11:12.168Z,23.34
2022-09-05T03:14:01.728Z,23.13
2022-09-05T03:16:29.244Z,22.92
2022-09-05T03:19:31.098Z,22.65
2022-09-05T03:22:37.221Z,22.55
2022-09-05T03:25:43.799Z,22.62
2022-09-05T03:31:22.151Z,22.55
2022-09-05T03:34:14.669Z,22.51
2022-09-05T03:37:09.054Z,22.47
2022-09-05T03:40:16.265Z,22.55
2022-09-05T03:43:22.250Z,22.64
2022-09-05T03:46:11.725Z,22.76
2022-09-05T03:48:53.118Z,22.86
2022-09-05T03:57:13.844Z,22.89
2022-09-05T03:57:17.662Z,22.81
2022-09-05T03:57:44.555Z,22.82
2022-09-05T04:00:21.665Z,22.64
2022-09-05T04:05:46.935Z,22.65
2022-09-05T04:08:19.347Z,22.48
2022-09-05T04:08:57.168Z,22.63
2022-09-05T04:11:35.764Z,22.64
2022-09-05T04:14:10.912Z,22.38
2022-09-05T04:17:10.340Z,22.30
2022-09-05T04:19:52.026Z,22.36
2022-09-05T04:22:23.128Z,22.42
2022-09-05T04:25:00.078Z,22.39
2022-09-05T04:27:49.288Z,22.48
2022-09-05T04:30:52.103Z,22.48
2022-09-05T04:33:36.865Z,22.45
2022-09-05T04:36:20.644Z,22.47
2022-09-05T04:39:10.349Z,22.36
2022-09-05T04:41:53.707Z,22.37
2022-09-05T04:44:48.584Z,22.26
2022-09-05T04:47:26.923Z,22.24
2022-09-05T04:50:24.994Z,22.33
2022-09-05T04:53:22.731Z,22.30
2022-09-05T04:55:57.959Z,22.40
2022-09-05T05:00:06.204Z,22.42
2022-09-05T05:06:01.554Z,22.39
2022-09-05T05:06:15.300Z,22.28
2022-09-05T05:07:26.003Z,22.32
2022-09-05T05:11:47.900Z,22.46
2022-09-05T05:18:03.358Z,22.48
2022-09-05T05:18:12.787Z,22.50
2022-09-05T05:19:04.214Z,22.74
2022-09-05T05:21:34.395Z,22.92
2022-09-05T05:24:14.170Z,23.04
2022-09-05T05:26:56.728Z,23.19
2022-09-05T05:29:54.775Z,23.23
2022-09-05T05:32:45.112Z,23.19
2022-09-05T05:35:21.758Z,23.25
2022-09-05T05:38:05.493Z,23.26
2022-09-05T05:40:41.291Z,23.32
2022-09-05T05:43:32.080Z,23.11
2022-09-05T05:46:01.268Z,23.06
2022-09-05T05:48:39.017Z,23.14
2022-09-05T05:51:17.338Z,23.24
2022-09-05T05:54:07.669Z,23.46
2022-09-05T05:56:41.216Z,23.56
2022-09-05T05:59:14.937Z,23.69
2022-09-05T06:02:07.615Z,23.92
2022-09-05T06:04:53.451Z,24.35
2022-09-05T06:09:23.082Z,24.31
2022-09-05T06:14:56.698Z,24.39
2022-09-05T06:15:00.161Z,24.74
2022-09-05T06:17:28.312Z,24.89
2022-09-05T06:21:16.195Z,24.79
2022-09-05T06:23:40.040Z,25.13
2022-09-05T06:26:24.869Z,25.35
2022-09-05T06:29:21.414Z,25.32
2022-09-05T06:32:33.902Z,25.33
2022-09-05T06:35:13.884Z,25.51
2022-09-05T06:38:18.192Z,25.46
2022-09-05T06:41:01.833Z,25.68
2022-09-05T06:44:13.592Z,25.77
2022-09-05T06:46:54.412Z,25.83
2022-09-05T06:49:45.884Z,25.47
2022-09-05T06:52:39.513Z,25.50
2022-09-05T06:55:52.450Z,25.96
2022-09-05T06:58:53.666Z,26.34
2022-09-05T07:02:00.880Z,26.59
2022-09-05T07:05:05.255Z,26.63
2022-09-05T07:07:31.388Z,26.63
2022-09-05T07:10:38.631Z,26.72
2022-09-05T07:13:18.479Z,27.03
2022-09-05T07:16:00.299Z,27.08
2022-09-05T07:18:37.842Z,27.27
2022-09-05T07:21:18.182Z,27.08
2022-09-05T07:24:09.849Z,26.71
2022-09-05T07:26:51.520Z,26.66
2022-09-05T07:29:27.764Z,26.85
2022-09-05T07:31:57.954Z,27.18
2022-09-05T07:34:33.386Z,27.27
2022-09-05T07:37:14.675Z,27.03
2022-09-05T07:40:24.599Z,26.67
2022-09-05T07:43:08.711Z,26.96
2022-09-05T07:46:12.651Z,26.92
2022-09-05T07:48:45.262Z,27.09
2022-09-05T07:56:55.147Z,27.29
2022-09-05T07:57:00.272Z,27.24
2022-09-05T08:00:23.091Z,27.27
2022-09-05T08:02:57.913Z,27.52
2022-09-05T08:05:35.143Z,27.48
2022-09-05T08:08:12.599Z,27.69
2022-09-05T08:11:22.800Z,27.59
2022-09-05T08:14:44.364Z,27.44
2022-09-05T08:17:01.276Z,27.82
2022-09-05T08:19:48.417Z,27.72
2022-09-05T08:22:29.670Z,27.80
2022-09-05T08:25:17.163Z,27.79
2022-09-05T08:28:11.985Z,27.68
2022-09-05T08:30:45.507Z,27.97
2022-09-05T08:33:23.881Z,27.69
2022-09-05T08:36:08.362Z,27.44
2022-09-05T08:38:40.843Z,28.15
2022-09-05T08:41:43.203Z,28.18
2022-09-05T08:46:46.416Z,28.93
2022-09-05T08:47:25.512Z,28.81
2022-09-05T08:50:21.035Z,28.61
2022-09-05T08:52:58.322Z,28.95
2022-09-05T08:55:50.268Z,28.57
2022-09-05T08:59:31.654Z,28.48
2022-09-05T09:02:15.665Z,28.44
2022-09-05T09:05:02.223Z,28.45
2022-09-05T09:07:50.701Z,28.44
2022-09-05T09:10:55.218Z,28.40
2022-09-05T09:13:32.299Z,28.69
2022-09-05T09:16:07.698Z,29.19
2022-09-05T09:18:59.201Z,28.81
2022-09-05T09:21:35.589Z,28.67
2022-09-05T09:24:14.548Z,29.69
2022-09-05T09:26:54.413Z,30.64
2022-09-05T09:29:24.005Z,30.02
2022-09-05T09:32:10.660Z,29.60
2022-09-05T09:35:00.424Z,30.38
2022-09-05T09:38:04.656Z,31.94
2022-09-05T09:41:06.075Z,32.83
2022-09-05T09:43:53.409Z,32.68
2022-09-05T09:46:50.854Z,32.99
2022-09-05T09:49:44.529Z,33.91
2022-09-05T09:52:24.669Z,32.91
2022-09-05T09:55:32.226Z,32.99
2022-09-05T09:58:03.962Z,33.62
2022-09-05T10:01:01.249Z,33.80
2022-09-05T10:10:00.929Z,33.50
2022-09-05T10:10:53.995Z,33.18
2022-09-05T10:10:55.576Z,32.83
2022-09-05T10:13:31.260Z,33.06
2022-09-05T10:16:21.573Z,33.23
2022-09-05T10:19:06.996Z,34.35
2022-09-05T10:24:56.068Z,34.25
2022-09-05T10:27:39.343Z,34.24
2022-09-05T10:32:24.547Z,35.66
2022-09-05T10:35:17.845Z,37.12
2022-09-05T10:36:46.824Z,37.55
2022-09-05T10:39:26.508Z,37.33
2022-09-05T10:42:03.104Z,36.19
2022-09-05T10:44:54.301Z,36.20
2022-09-05T10:48:13.389Z,36.49
2022-09-05T10:50:45.883Z,37.36
2022-09-05T10:53:44.935Z,37.42
2022-09-05T10:56:26.104Z,37.00
2022-09-05T11:02:16.467Z,37.47
2022-09-05T11:02:28.101Z,38.02
2022-09-05T11:05:05.207Z,37.91
2022-09-05T11:07:42.217Z,39.11
2022-09-05T11:10:25.387Z,40.36
2022-09-05T11:13:10.980Z,40.84
2022-09-05T11:16:04.581Z,41.24
2022-09-05T11:18:55.263Z,39.59
2022-09-05T11:21:52.754Z,37.57
2022-09-05T11:24:44.376Z,36.77
2022-09-05T11:27:37.055Z,38.35
2022-09-05T11:30:28.862Z,39.75
2022-09-05T11:39:48.594Z,40.08
2022-09-05T11:39:59.171Z,37.78
2022-09-05T11:40:29.976Z,38.61
2022-09-05T11:42:55.204Z,39.03
2022-09-05T11:45:50.059Z,40.03
2022-09-05T11:48:46.602Z,40.22
2022-09-05T11:51:47.403Z,40.84
2022-09-05T11:54:33.929Z,41.31
2022-09-05T11:57:33.830Z,41.09
2022-09-05T12:00:32.957Z,38.71
2022-09-05T12:03:59.330Z,38.04
2022-09-05T12:06:48.088Z,38.70
2022-09-05T12:09:47.929Z,39.43
2022-09-05T12:12:39.378Z,39.40
2022-09-05T12:15:26.983Z,39.87
2022-09-05T12:18:27.437Z,40.13
2022-09-05T12:21:07.918Z,39.45
2022-09-05T12:24:08.013Z,39.46
2022-09-05T12:27:41.626Z,39.11
2022-09-05T12:30:00.748Z,40.50
2022-09-05T12:35:54.498Z,41.06
2022-09-05T12:36:10.227Z,40.11
2022-09-05T12:41:32.666Z,40.04
2022-09-05T12:42:19.963Z,39.48
2022-09-05T12:45:09.721Z,39.22
2022-09-05T12:48:09.920Z,40.41
2022-09-05T12:50:49.773Z,39.76
2022-09-05T12:53:19.858Z,40.16
2022-09-05T12:56:47.962Z,40.14
2022-09-05T13:02:56.143Z,39.94
2022-09-05T13:03:01.185Z,39.35
2022-09-05T13:04:46.452Z,39.66
2022-09-05T13:07:39.045Z,41.10
2022-09-05T13:14:18.866Z,41.17
2022-09-05T13:14:56.209Z,41.49
2022-09-05T13:16:23.316Z,42.38
2022-09-05T13:19:04.523Z,43.22
2022-09-05T13:21:34.646Z,45.01
2022-09-05T13:24:34.389Z,44.40
2022-09-05T13:27:09.003Z,44.43
2022-09-05T13:31:18.273Z,45.56
2022-09-05T13:37:55.425Z,46.08
2022-09-05T13:38:05.950Z,44.72
2022-09-05T13:39:02.382Z,44.71
2022-09-05T13:41:36.419Z,44.94
2022-09-05T13:44:27.394Z,45.87
2022-09-05T13:47:29.328Z,45.93
2022-09-05T13:50:22.485Z,47.89
2022-09-05T13:53:14.728Z,46.79
2022-09-05T13:56:03.318Z,47.58
2022-09-05T13:58:56.614Z,47.03
2022-09-05T14:01:48.422Z,46.33
2022-09-05T14:07:46.014Z,46.62
2022-09-05T14:10:43.370Z,45.97
2022-09-05T14:13:29.105Z,44.96
2022-09-05T14:16:01.014Z,46.93
2022-09-05T14:19:09.276Z,47.21
2022-09-05T14:21:42.005Z,49.03
2022-09-05T14:24:28.457Z,48.42
2022-09-05T14:27:00.400Z,48.14
2022-09-05T14:29:53.772Z,47.56
2022-09-05T14:37:36.554Z,47.46
2022-09-05T14:37:38.869Z,49.66
2022-09-05T14:38:33.633Z,49.74
2022-09-05T14:41:48.771Z,48.90
2022-09-05T14:45:06.291Z,47.82
2022-09-05T14:47:48.303Z,48.19
2022-09-05T14:50:52.340Z,48.33
2022-09-05T14:57:22.994Z,47.66
2022-09-05T15:02:42.868Z,47.69
2022-09-05T15:02:47.777Z,47.24
2022-09-05T15:05:11.857Z,46.86
2022-09-05T15:08:03.135Z,48.11
2022-09-05T15:12:21.805Z,46.12
2022-09-05T15:13:51.646Z,45.44
2022-09-05T15:16:25.848Z,45.83
2022-09-05T15:18:56.389Z,45.98
2022-09-05T15:21:35.550Z,45.66
2022-09-05T15:24:31.368Z,46.00
2022-09-05T15:27:01.733Z,45.64
2022-09-05T15:29:35.747Z,46.57
2022-09-05T15:32:22.549Z,45.66
2022-09-05T15:34:51.696Z,44.35
2022-09-05T15:37:36.816Z,44.76
2022-09-05T15:40:35.357Z,44.61
2022-09-05T15:43:03.419Z,44.10
2022-09-05T15:45:35.725Z,44.40
2022-09-05T15:48:26.304Z,43.88
2022-09-05T15:51:09.360Z,43.35
2022-09-05T15:53:38.671Z,42.69
2022-09-05T15:56:12.339Z,42.04
2022-09-05T15:58:53.649Z,42.74
2022-09-05T16:02:00.319Z,40.08
2022-09-05T16:10:36.425Z,39.33
2022-09-05T16:10:43.465Z,39.54
2022-09-05T16:10:59.085Z,39.22
2022-09-05T16:13:17.824Z,37.93
2022-09-05T16:22:30.388Z,36.25
2022-09-05T16:23:23.941Z,34.78
2022-09-05T16:23:24.938Z,35.20
2022-09-05T16:24:57.809Z,34.53
2022-09-05T16:27:50.834Z,33.74
2022-09-05T16:30:31.672Z,33.22
2022-09-05T16:33:12.905Z,33.08
2022-09-05T16:36:12.885Z,33.03
2022-09-05T16:38:50.609Z,32.72
2022-09-05T16:41:38.006Z,32.44
2022-09-05T16:44:17.758Z,32.66
2022-09-05T16:47:04.084Z,32.74
2022-09-05T16:49:56.283Z,32.14
2022-09-05T16:52:56.153Z,32.21
2022-09-05T16:55:55.037Z,32.01
2022-09-05T16:58:58.199Z,32.10
2022-09-05T17:01:54.933Z,32.04
2022-09-05T17:05:03.443Z,31.73
2022-09-05T17:07:52.843Z,31.76
2022-09-05T17:10:26.793Z,31.69
2022-09-05T17:12:55.715Z,31.69
2022-09-05T17:15:30.013Z,31.66
2022-09-05T17:18:21.745Z,31.66
2022-09-05T17:20:57.892Z,31.45
2022-09-05T17:28:09.249Z,31.56
2022-09-05T17:29:47.188Z,31.48
2022-09-05T17:32:49.656Z,31.27
2022-09-05T17:35:48.239Z,31.12
2022-09-05T17:38:38.968Z,30.87
2022-09-05T17:41:16.215Z,30.67
2022-09-05T17:43:58.320Z,30.58
2022-09-05T17:46:31.280Z,30.57
2022-09-05T17:49:18.315Z,30.46
2022-09-05T17:51:54.365Z,30.28
2022-09-05T17:54:33.763Z,30.22
2022-09-05T17:57:27.845Z,30.16
2022-09-05T18:00:40.957Z,29.91
2022-09-05T18:03:09.181Z,29.82
2022-09-05T18:06:16.311Z,29.81
2022-09-05T18:08:50.190Z,29.86
2022-09-05T18:11:26.242Z,29.72
2022-09-05T18:14:10.391Z,29.58
2022-09-05T18:17:36.108Z,29.35
2022-09-05T18:19:44.029Z,29.39
2022-09-05T18:22:29.940Z,29.57
2022-09-05T18:25:16.606Z,29.50
2022-09-05T18:28:22.552Z,29.35
2022-09-05T18:30:51.290Z,29.44
2022-09-05T18:33:55.856Z,29.28
2022-09-05T18:36:25.731Z,29.05
2022-09-05T18:39:38.461Z,29.01
2022-09-05T18:42:37.805Z,29.07
2022-09-05T18:45:16.644Z,29.06
2022-09-05T18:47:59.640Z,29.05
2022-09-05T18:50:35.368Z,28.90
2022-09-05T18:53:13.131Z,28.74
2022-09-05T18:56:20.754Z,28.39
2022-09-05T18:59:14.601Z,28.61
2022-09-05T19:01:58.876Z,28.40
2022-09-05T19:04:49.491Z,28.52
2022-09-05T19:07:22.560Z,28.32
2022-09-05T19:10:34.956Z,28.17
2022-09-05T19:13:10.801Z,27.92
2022-09-05T19:16:33.101Z,28.07
2022-09-05T19:19:07.004Z,27.92
2022-09-05T19:21:44.956Z,27.53
2022-09-05T19:24:16.570Z,27.43
2022-09-05T19:27:21.042Z,27.60
2022-09-05T19:36:57.279Z,27.29
2022-09-05T19:37:09.976Z,27.10
2022-09-05T19:37:15.601Z,27.14
2022-09-05T19:38:13.477Z,27.02
2022-09-05T19:47:27.913Z,27.04
2022-09-05T19:47:34.816Z,26.89
2022-09-05T19:47:35.920Z,26.76
2022-09-05T19:49:13.125Z,26.67
2022-09-05T19:51:42.188Z,26.67
2022-09-05T19:54:36.207Z,26.55
2022-09-05T19:57:09.971Z,26.47
2022-09-05T19:59:41.683Z,26.54
2022-09-05T20:02:25.427Z,26.63
2022-09-05T20:04:56.908Z,26.61
2022-09-05T20:07:29.177Z,26.47
2022-09-05T20:09:59.208Z,26.48
2022-09-05T20:12:39.016Z,26.47
2022-09-05T20:15:23.022Z,26.41
2022-09-05T20:17:54.023Z,26.29
2022-09-05T20:20:32.750Z,26.00
2022-09-05T20:23:07.267Z,26.11
2022-09-05T20:25:48.221Z,25.99
2022-09-05T20:28:19.936Z,25.93
2022-09-05T20:30:55.292Z,25.93
2022-09-05T20:33:29.498Z,25.94
2022-09-05T20:43:07.907Z,26.15
2022-09-05T20:43:16.208Z,26.02
2022-09-05T20:43:22.632Z,25.93
2022-09-05T20:44:50.964Z,26.00
2022-09-05T20:50:56.950Z,25.95
2022-09-05T20:54:19.757Z,25.84
2022-09-05T20:54:22.376Z,25.89
2022-09-05T20:56:09.646Z,25.90
2022-09-05T20:58:39.143Z,25.77
2022-09-05T21:01:21.120Z,25.74
2022-09-05T21:03:58.589Z,25.69
2022-09-05T21:06:33.832Z,25.83
2022-09-05T21:09:23.790Z,25.82
2022-09-05T21:12:00.250Z,25.84
2022-09-05T21:14:29.459Z,25.80
2022-09-05T21:17:04.872Z,25.71
2022-09-05T21:19:54.244Z,25.79
2022-09-05T21:22:25.220Z,25.68
2022-09-05T21:25:18.785Z,25.71
2022-09-05T21:28:23.622Z,25.75
2022-09-05T21:31:12.173Z,25.64
2022-09-05T21:33:45.436Z,25.55
2022-09-05T21:36:17.838Z,25.46
2022-09-05T21:38:45.812Z,25.36
2022-09-05T21:41:16.342Z,25.36
2022-09-05T21:47:37.390Z,25.53
2022-09-05T21:47:39.559Z,25.36
2022-09-05T21:49:23.528Z,25.44
2022-09-05T21:51:51.960Z,25.42
2022-09-05T21:59:22.192Z,25.32
2022-09-05T21:59:25.803Z,25.18
2022-09-05T22:00:11.930Z,25.10
2022-09-05T22:02:51.529Z,25.26
2022-09-05T22:05:21.765Z,25.25
2022-09-05T22:07:53.409Z,25.16
2022-09-05T22:10:22.318Z,24.98
2022-09-05T22:13:03.443Z,25.09
2022-09-05T22:15:32.319Z,25.17
2022-09-05T22:18:17.020Z,25.22
2022-09-05T22:21:26.837Z,25.04
2022-09-05T22:23:44.527Z,24.89
2022-09-05T22:26:14.489Z,24.81
2022-09-05T22:28:49.005Z,24.94
2022-09-05T22:31:18.204Z,24.88
2022-09-05T22:33:50.917Z,24.87
2022-09-05T22:36:19.562Z,25.06
2022-09-05T22:38:47.766Z,25.01
2022-09-05T22:41:15.475Z,25.07
2022-09-05T22:43:46.468Z,24.87
2022-09-05T22:46:14.891Z,24.91
2022-09-05T22:48:42.702Z,25.15
2022-09-05T22:51:11.420Z,24.74
2022-09-05T22:53:39.918Z,24.76
2022-09-05T22:56:08.537Z,24.79
2022-09-05T22:58:44.935Z,24.88
2022-09-05T23:01:12.856Z,24.77
2022-09-05T23:03:40.507Z,24.83
2022-09-05T23:06:11.311Z,24.76
2022-09-05T23:08:42.175Z,24.74
2022-09-05T23:11:15.356Z,24.69
2022-09-05T23:13:43.585Z,24.77
2022-09-05T23:16:11.785Z,24.78
2022-09-05T23:18:40.051Z,24.73
2022-09-05T23:21:12.029Z,24.73
2022-09-05T23:23:43.244Z,24.70
2022-09-05T23:26:13.184Z,24.83
2022-09-05T23:28:43.444Z,24.82
2022-09-05T23:31:12.852Z,24.78
2022-09-05T23:33:42.228Z,24.64
2022-09-05T23:36:15.531Z,24.55
2022-09-05T23:38:46.783Z,24.35
2022-09-05T23:41:16.161Z,24.52
2022-09-05T23:43:43.889Z,24.49
2022-09-05T23:46:11.790Z,24.37
2022-09-05T23:48:39.730Z,24.44
2022-09-05T23:51:09.980Z,24.52
2022-09-05T23:53:38.017Z,24.56
2022-09-05T23:56:07.286Z,24.49
2022-09-05T23:58:36.174Z,24.47
